Time;durP1;ratioP1;P1;durP2;ratioP2;P2;SDS_P1;SDS_P2;PMS_P1;PMS_P2;Temp;Humidity;BMP_temperature;BMP_pressure;BME280_temperature;BME280_humidity;BME280_pressure;Samples;Min_cycle;Max_cycle;Signal;HPM_P1;HPM_P2
2021/08/13 00:01:23;;;;;;;7.05;3.30;;;;;;;22.30;52.53;101860.51;1628327;88;21439;-79
2021/08/13 00:03:51;;;;;;;5.80;4.08;;;;;;;22.32;52.29;101859.86;1628327;88;21487;-80
2021/08/13 00:06:17;;;;;;;5.67;3.67;;;;;;;22.33;52.25;101858.89;1628247;88;21577;-83
2021/08/13 00:08:46;;;;;;;6.25;3.42;;;;;;;22.37;52.13;101862.07;1606158;88;21069;-77
2021/08/13 00:11:14;;;;;;;5.70;3.33;;;;;;;22.39;51.98;101856.13;1628424;88;21538;-78
2021/08/13 00:13:40;;;;;;;5.12;3.47;;;;;;;22.39;51.81;101859.61;1633579;86;20996;-78
2021/08/13 00:16:09;;;;;;;6.30;3.52;;;;;;;22.41;51.57;101860.77;1646923;87;21007;-78
2021/08/13 00:18:36;;;;;;;4.72;3.12;;;;;;;22.43;51.43;101862.80;1646879;87;21590;-83
2021/08/13 00:21:04;;;;;;;7.67;4.53;;;;;;;22.44;51.20;101863.11;1646870;87;21055;-77
2021/08/13 00:23:32;;;;;;;4.53;3.90;;;;;;;22.44;51.09;101863.95;1646869;87;21531;-84
2021/08/13 00:26:00;;;;;;;7.67;3.85;;;;;;;22.45;50.76;101870.92;1646708;87;21023;-78
2021/08/13 00:28:28;;;;;;;7.28;3.80;;;;;;;22.45;50.59;101869.59;1646672;87;21024;-84
2021/08/13 00:30:56;;;;;;;5.25;3.42;;;;;;;22.45;50.51;101868.27;1646803;87;21131;-82
2021/08/13 00:33:23;;;;;;;5.67;3.60;;;;;;;22.47;50.36;101876.05;1646874;87;21631;-80
2021/08/13 00:35:50;;;;;;;5.50;3.92;;;;;;;22.47;50.26;101876.05;1646798;87;21514;-77
2021/08/13 00:38:18;;;;;;;5.58;4.05;;;;;;;22.48;50.09;101881.69;1646699;87;21514;-82
2021/08/13 00:40:45;;;;;;;5.37;3.80;;;;;;;22.49;50.08;101875.42;1647027;87;21027;-80
2021/08/13 00:43:13;;;;;;;4.20;3.40;;;;;;;22.49;49.98;101880.23;1646959;87;21589;-83
2021/08/13 00:45:40;;;;;;;6.00;3.67;;;;;;;22.51;49.90;101878.74;1646838;87;20885;-80
2021/08/13 00:48:09;;;;;;;5.95;3.72;;;;;;;22.52;49.78;101875.13;1646571;85;21161;-84
2021/08/13 00:50:39;;;;;;;6.20;3.90;;;;;;;22.52;49.64;101875.97;1626249;87;20968;-78
2021/08/13 00:53:08;;;;;;;4.67;3.30;;;;;;;22.52;49.59;101875.13;1626024;87;21645;-76
2021/08/13 00:55:36;;;;;;;8.13;3.75;;;;;;;22.51;49.62;101876.09;1646869;87;20972;-74
2021/08/13 00:58:07;;;;;;;4.53;3.83;;;;;;;22.49;49.48;101880.72;1646912;87;21345;-87
2021/08/13 01:00:39;;;;;;;6.35;3.80;;;;;;;22.47;49.55;101880.02;1632912;85;21133;-73
2021/08/13 01:03:06;;;;;;;4.50;2.90;;;;;;;22.44;49.60;101875.86;1646666;87;21527;-77
2021/08/13 01:05:36;;;;;;;6.42;3.60;;;;;;;22.44;49.72;101870.56;1626453;87;21023;-78
2021/08/13 01:08:05;;;;;;;5.45;3.42;;;;;;;22.44;49.80;101870.56;1646681;87;21625;-77
2021/08/13 01:10:41;;;;;;;4.80;3.12;;;;;;;22.43;49.75;101872.86;1646767;87;21066;-76
2021/08/13 01:13:17;;;;;;;7.95;2.95;;;;;;;22.41;49.73;101862.09;1643491;87;21542;-78
2021/08/13 01:15:51;;;;;;;6.20;3.72;;;;;;;22.38;49.75;101863.72;1627867;88;21013;-83
2021/08/13 01:18:28;;;;;;;6.95;3.70;;;;;;;22.35;49.92;101860.05;1627142;88;21012;-81
2021/08/13 01:21:31;;;;;;;6.03;3.83;;;;;;;22.32;49.91;101859.86;1627935;88;20985;-76
2021/08/13 01:24:05;;;;;;;5.22;3.83;;;;;;;22.32;49.91;101860.34;1627900;88;21513;-80
2021/08/13 01:26:40;;;;;;;4.40;3.60;;;;;;;22.29;49.96;101859.31;1627941;88;21979;-75
2021/08/13 01:29:25;;;;;;;10.65;4.05;;;;;;;22.26;50.03;101855.16;1627953;88;20934;-81
2021/08/13 01:32:17;;;;;;;6.85;3.65;;;;;;;22.24;50.12;101857.63;1589483;88;21057;-82
2021/08/13 01:34:52;;;;;;;12.63;4.25;;;;;;;22.22;50.22;101858.23;1627950;88;20981;-79
2021/08/13 01:37:20;;;;;;;5.25;3.47;;;;;;;22.20;50.49;101859.73;1655912;86;20962;-86
2021/08/13 01:39:51;;;;;;;6.62;3.65;;;;;;;22.17;50.47;101861.34;1654953;86;21934;-77
2021/08/13 01:42:20;;;;;;;7.67;4.30;;;;;;;22.15;50.50;101855.34;1655523;86;21034;-82
2021/08/13 01:44:48;;;;;;;6.22;3.92;;;;;;;22.14;50.64;101859.00;1631239;86;21450;-78
2021/08/13 01:47:16;;;;;;;6.25;4.17;;;;;;;22.11;50.73;101867.22;1655690;86;20978;-76
2021/08/13 01:49:44;;;;;;;4.28;3.60;;;;;;;22.05;50.91;101865.97;1655401;86;21038;-74
2021/08/13 01:52:14;;;;;;;7.33;3.70;;;;;;;22.02;50.89;101866.75;1631457;86;20998;-82
2021/08/13 01:54:44;;;;;;;4.72;3.80;;;;;;;21.97;50.98;101872.49;1655709;86;21608;-75
2021/08/13 01:57:13;;;;;;;9.78;4.58;;;;;;;21.93;51.06;101867.14;1631281;86;20946;-74
2021/08/13 01:59:42;;;;;;;5.65;4.00;;;;;;;21.92;51.11;101869.44;1631232;86;21473;-85
2021/08/13 02:02:08;;;;;;;6.58;3.77;;;;;;;21.90;51.26;101866.59;1655769;86;21065;-74
2021/08/13 02:04:43;;;;;;;8.45;3.60;;;;;;;21.88;51.34;101869.86;1655704;86;20963;-77
2021/08/13 02:07:12;;;;;;;8.78;3.77;;;;;;;21.86;51.42;101866.50;1655079;85;21037;-77
2021/08/13 02:09:40;;;;;;;5.75;3.90;;;;;;;21.81;51.46;101872.24;1631289;86;20986;-86
2021/08/13 02:12:11;;;;;;;9.10;3.75;;;;;;;21.75;51.56;101878.11;1655699;86;21022;-77
2021/08/13 02:14:39;;;;;;;4.45;3.30;;;;;;;21.71;51.63;101875.88;1616723;86;21008;-74
2021/08/13 02:17:12;;;;;;;8.53;3.77;;;;;;;21.67;51.81;101883.74;1647309;86;21517;-78
2021/08/13 02:19:47;;;;;;;;;;;;;;;21.61;51.96;101886.48;1672417;86;20935;-72
2021/08/13 02:22:16;;;;;;;5.62;3.70;;;;;;;21.56;52.05;101885.60;1646881;86;20122;-85
2021/08/13 02:24:44;;;;;;;6.17;4.12;;;;;;;21.48;52.13;101892.55;1670027;86;21047;-86
2021/08/13 02:27:13;;;;;;;5.90;3.90;;;;;;;21.42;52.36;101890.00;1669776;86;20881;-81
2021/08/13 02:29:40;;;;;;;8.15;3.83;;;;;;;21.37;52.55;101890.08;1670199;86;21981;-79
2021/08/13 02:32:09;;;;;;;8.28;3.77;;;;;;;21.31;52.60;101884.89;1669800;84;21026;-83
2021/08/13 02:34:38;;;;;;;9.80;4.28;;;;;;;21.26;52.74;101890.22;1670158;86;20907;-81
2021/08/13 02:37:14;;;;;;;6.80;3.70;;;;;;;21.21;52.91;101891.98;1670129;86;20979;-81
2021/08/13 02:39:53;;;;;;;9.20;4.50;;;;;;;21.16;53.10;101895.98;1670154;86;20880;-75
2021/08/13 02:42:31;;;;;;;7.10;3.87;;;;;;;21.11;53.19;101896.42;1646512;86;21145;-85
2021/08/13 02:45:00;;;;;;;6.72;4.10;;;;;;;21.03;53.45;101894.44;1669723;86;20852;-79
2021/08/13 02:47:29;;;;;;;9.35;4.17;;;;;;;20.95;53.65;101904.03;1669904;86;20960;-83
2021/08/13 02:50:05;;;;;;;7.50;4.33;;;;;;;20.87;53.81;101903.86;1669841;86;20983;-78
2021/08/13 02:52:47;;;;;;;8.20;4.47;;;;;;;20.81;54.00;101911.85;1670139;86;20947;-75
2021/08/13 02:55:18;;;;;;;13.08;4.28;;;;;;;20.74;54.30;101900.69;1660435;84;21168;-74
2021/08/13 02:57:51;;;;;;;7.83;4.15;;;;;;;20.63;54.49;101904.27;1646919;86;20939;-75
2021/08/13 03:00:18;;;;;;;8.43;4.62;;;;;;;20.56;54.71;101905.77;1647780;86;21450;-73
2021/08/13 03:02:48;;;;;;;8.15;4.78;;;;;;;20.47;55.02;101909.22;1669746;86;21513;-78
2021/08/13 03:05:19;;;;;;;9.05;4.55;;;;;;;20.38;55.27;101900.80;1670026;86;20971;-77
2021/08/13 03:07:47;;;;;;;10.68;4.50;;;;;;;20.30;55.52;101908.53;1669862;86;21140;-77
2021/08/13 03:10:14;;;;;;;10.08;4.97;;;;;;;20.22;55.86;101907.03;1669828;86;21555;-78
2021/08/13 03:12:43;;;;;;;10.80;4.87;;;;;;;20.16;56.15;101913.68;1647026;86;21422;-75
2021/08/13 03:15:11;;;;;;;6.72;4.12;;;;;;;20.12;56.30;101915.37;1669846;86;20944;-75
2021/08/13 03:17:40;;;;;;;10.13;4.40;;;;;;;20.04;56.53;101920.81;1669967;86;20904;-75
2021/08/13 03:20:09;;;;;;;7.25;4.05;;;;;;;20.00;56.72;101920.75;1625383;86;21961;-77
2021/08/13 03:22:38;;;;;;;7.33;4.80;;;;;;;19.95;56.90;101918.14;1669258;85;20939;-78
2021/08/13 03:25:08;;;;;;;6.75;4.40;;;;;;;19.90;57.07;101922.98;1669842;86;21546;-75
2021/08/13 03:27:41;;;;;;;9.70;4.60;;;;;;;19.85;57.26;101925.16;1670147;86;20976;-76
2021/08/13 03:30:09;;;;;;;9.50;4.08;;;;;;;19.80;57.45;101932.14;1646545;86;21023;-72
2021/08/13 03:32:37;;;;;;;5.90;4.47;;;;;;;19.75;57.76;101934.83;1670032;86;21549;-76
2021/08/13 03:35:04;;;;;;;7.55;4.33;;;;;;;19.73;57.90;101942.84;1669900;86;21027;-74
2021/08/13 03:37:35;;;;;;;7.90;4.35;;;;;;;19.69;58.00;101945.37;1647134;86;20979;-74
2021/08/13 03:40:05;;;;;;;6.50;4.40;;;;;;;19.67;58.15;101937.25;1669971;86;21006;-74
2021/08/13 03:42:35;;;;;;;11.73;5.20;;;;;;;19.65;58.33;101949.25;1669929;86;21050;-72
2021/08/13 03:45:02;;;;;;;8.63;4.60;;;;;;;19.62;58.50;101947.34;1669926;86;21404;-74
2021/08/13 03:47:29;;;;;;;8.73;3.85;;;;;;;19.60;58.70;101953.20;1646564;86;21003;-75
2021/08/13 03:49:58;;;;;;;7.75;4.40;;;;;;;19.58;58.80;101955.14;1646866;86;21506;-73
2021/08/13 03:52:26;;;;;;;7.65;4.20;;;;;;;19.57;58.86;101957.41;1670105;86;20884;-72
2021/08/13 03:54:54;;;;;;;6.28;4.30;;;;;;;19.54;59.04;101958.51;1670081;86;21058;-77
2021/08/13 03:57:24;;;;;;;5.75;4.62;;;;;;;19.51;59.12;101956.97;1669794;86;21130;-79
2021/08/13 03:59:50;;;;;;;4.85;3.90;;;;;;;19.49;59.16;101957.59;1670044;86;20924;-79
2021/08/13 04:02:18;;;;;;;8.00;4.62;;;;;;;19.50;59.21;101954.45;1670594;86;21493;-80
2021/08/13 04:04:44;;;;;;;6.95;3.90;;;;;;;19.53;59.23;101962.09;1652211;85;21007;-79
2021/08/13 04:07:13;;;;;;;8.65;4.28;;;;;;;19.56;59.14;101967.11;1675862;85;20938;-76
2021/08/13 04:09:40;;;;;;;8.40;4.55;;;;;;;19.59;59.16;101966.04;1675842;85;21086;-79
2021/08/13 04:12:11;;;;;;;9.38;4.85;;;;;;;19.62;59.21;101967.94;1675378;85;20988;-75
2021/08/13 04:14:37;;;;;;;6.25;4.10;;;;;;;19.65;59.16;101968.16;1670084;85;21606;-75
2021/08/13 04:17:04;;;;;;;7.80;4.42;;;;;;;19.68;58.96;101971.85;1626956;87;21021;-75
2021/08/13 04:19:36;;;;;;;11.00;4.65;;;;;;;19.71;58.89;101971.59;1650117;87;21021;-79
2021/08/13 04:22:05;;;;;;;8.88;4.75;;;;;;;19.74;58.77;101970.02;1650191;87;21226;-82
2021/08/13 04:24:33;;;;;;;8.88;4.53;;;;;;;19.75;58.68;101973.02;1649941;87;20976;-74
2021/08/13 04:27:01;;;;;;;10.00;4.72;;;;;;;19.78;58.71;101977.55;1649952;87;20985;-82
2021/08/13 04:29:27;;;;;;;7.00;3.87;;;;;;;19.80;58.73;101974.30;1626936;87;21533;-78
2021/08/13 04:31:55;;;;;;;7.72;4.08;;;;;;;19.83;58.68;101976.67;1650591;87;21551;-83
2021/08/13 04:34:24;;;;;;;12.63;5.00;;;;;;;19.87;58.71;101973.30;1650147;87;21152;-74
2021/08/13 04:36:55;;;;;;;7.78;4.62;;;;;;;19.93;58.55;101978.88;1627857;87;21433;-83
2021/08/13 04:39:31;;;;;;;9.75;5.55;;;;;;;19.98;58.46;101972.73;1650316;87;20979;-83
2021/08/13 04:42:02;;;;;;;8.08;4.30;;;;;;;20.05;58.40;101980.47;1627431;87;20969;-81
2021/08/13 04:44:29;;;;;;;8.65;4.65;;;;;;;20.15;58.17;101983.64;1650608;87;21163;-78
2021/08/13 04:46:55;;;;;;;10.82;5.45;;;;;;;20.24;57.94;101979.73;1650554;87;21824;-85
2021/08/13 04:49:24;;;;;;;12.95;5.42;;;;;;;20.33;57.77;101978.13;1649896;87;21018;-85
2021/08/13 04:51:53;;;;;;;16.12;5.30;;;;;;;20.40;57.67;101979.27;1649925;87;21483;-78
2021/08/13 04:54:22;;;;;;;8.75;5.25;;;;;;;20.51;57.09;101983.16;1649842;87;20994;-76
2021/08/13 04:56:49;;;;;;;9.73;4.80;;;;;;;20.61;56.70;101991.09;1650216;87;20958;-85
2021/08/13 04:59:16;;;;;;;10.15;4.47;;;;;;;20.68;56.17;101990.41;1649977;87;21196;-82
2021/08/13 05:01:47;;;;;;;12.70;4.95;;;;;;;20.79;56.19;102002.19;1649943;87;20957;-82
2021/08/13 05:04:17;;;;;;;9.83;4.95;;;;;;;20.87;56.19;102000.17;1650360;87;21601;-82
2021/08/13 05:06:44;;;;;;;13.08;5.30;;;;;;;20.96;56.06;101999.39;1650194;87;21037;-82
2021/08/13 05:09:15;;;;;;;10.48;4.20;;;;;;;21.06;55.56;102003.69;1649685;87;20963;-83
2021/08/13 05:11:44;;;;;;;8.25;4.58;;;;;;;21.14;54.92;102005.70;1650475;87;21074;-81
2021/08/13 05:14:14;;;;;;;11.12;4.92;;;;;;;21.22;54.79;102008.98;1650668;87;21631;-79
2021/08/13 05:16:43;;;;;;;10.18;4.83;;;;;;;21.29;54.61;102010.08;1650334;85;21334;-84
2021/08/13 05:19:10;;;;;;;10.43;4.00;;;;;;;21.35;54.68;102018.28;1649805;87;21604;-82
2021/08/13 05:21:41;;;;;;;12.55;4.47;;;;;;;21.43;54.58;102022.88;1650414;87;21551;-81
2021/08/13 05:24:14;;;;;;;12.10;5.00;;;;;;;21.50;54.29;102027.48;1622335;88;20990;-83
2021/08/13 05:26:41;;;;;;;9.93;4.12;;;;;;;21.56;54.33;102025.61;1651301;85;20929;-81
2021/08/13 05:29:09;;;;;;;10.18;4.20;;;;;;;21.63;54.25;102028.53;1650970;87;20973;-75
2021/08/13 05:31:41;;;;;;;14.78;5.00;;;;;;;21.69;54.03;102029.77;1650861;87;20959;-86
2021/08/13 05:34:09;;;;;;;12.50;4.80;;;;;;;21.77;53.83;102033.37;1651394;87;21017;-82
2021/08/13 05:36:38;;;;;;;8.48;4.25;;;;;;;21.84;53.75;102027.88;1650848;86;21206;-79
2021/08/13 05:39:05;;;;;;;8.28;4.30;;;;;;;21.90;53.73;102033.11;1651248;87;21080;-82
2021/08/13 05:41:32;;;;;;;9.35;4.45;;;;;;;21.95;53.23;102030.89;1650790;87;20956;-82
2021/08/13 05:43:59;;;;;;;8.15;4.78;;;;;;;21.98;53.11;102027.48;1651086;87;21033;-81
2021/08/13 05:46:29;;;;;;;10.38;4.90;;;;;;;22.05;53.13;102031.20;1650969;87;21034;-84
2021/08/13 05:48:58;;;;;;;8.20;4.20;;;;;;;22.11;53.29;102029.82;1651325;85;21473;-81
2021/08/13 05:51:28;;;;;;;7.92;4.35;;;;;;;22.17;53.28;102033.70;1650554;87;20975;-75
2021/08/13 05:53:57;;;;;;;10.95;4.15;;;;;;;22.23;52.97;102033.95;1650596;87;21010;-85
2021/08/13 05:56:25;;;;;;;7.78;4.22;;;;;;;22.30;52.58;102028.45;1639431;87;21086;-77
2021/08/13 05:58:53;;;;;;;10.75;3.85;;;;;;;22.39;52.16;102030.70;1648882;85;21027;-78
2021/08/13 06:01:21;;;;;;;8.30;4.22;;;;;;;22.47;51.52;102032.12;1649984;86;21935;-78
2021/08/13 06:03:49;;;;;;;6.62;3.22;;;;;;;22.56;51.39;102022.83;1650123;85;21547;-83
2021/08/13 06:06:17;;;;;;;8.35;3.17;;;;;;;22.63;51.30;102023.08;1648444;85;21014;-77
2021/08/13 06:08:47;;;;;;;9.48;4.67;;;;;;;22.70;51.21;102026.00;1650421;85;20969;-84
2021/08/13 06:11:15;;;;;;;8.78;4.37;;;;;;;22.79;50.26;102025.95;1650618;85;20999;-78
2021/08/13 06:13:43;;;;;;;8.70;4.15;;;;;;;22.87;50.18;102026.06;1650826;87;21179;-82
2021/08/13 06:16:11;;;;;;;10.50;3.75;;;;;;;22.93;49.73;102027.28;1652976;85;21017;-81
2021/08/13 06:18:38;;;;;;;10.43;3.40;;;;;;;22.99;49.91;102028.01;1654103;86;21087;-80
2021/08/13 06:21:06;;;;;;;7.67;3.20;;;;;;;23.04;49.93;102023.92;1654353;86;21029;-77
2021/08/13 06:23:35;;;;;;;9.68;3.65;;;;;;;23.09;49.65;102024.33;1653721;86;21547;-78
2021/08/13 06:26:02;;;;;;;13.80;4.08;;;;;;;23.18;49.14;102021.27;1653801;86;21138;-85
2021/08/13 06:28:30;;;;;;;7.05;3.72;;;;;;;23.26;49.04;102025.82;1653634;86;20933;-76
2021/08/13 06:30:58;;;;;;;7.45;4.28;;;;;;;23.35;48.65;102026.23;1653559;86;20956;-77
2021/08/13 06:33:28;;;;;;;7.53;3.40;;;;;;;23.42;48.17;102029.47;1653536;85;21741;-82
2021/08/13 06:35:54;;;;;;;11.15;4.55;;;;;;;23.46;48.21;102028.67;1653580;85;21080;-78
2021/08/13 06:38:21;;;;;;;6.12;3.37;;;;;;;23.53;48.11;102035.88;1653602;86;21129;-83
2021/08/13 06:40:49;;;;;;;8.00;3.40;;;;;;;23.57;47.72;102033.27;1653827;85;20973;-82
2021/08/13 06:43:17;;;;;;;6.20;3.40;;;;;;;23.64;47.58;102037.47;1653567;84;21017;-86
2021/08/13 06:45:47;;;;;;;5.80;3.33;;;;;;;23.70;47.33;102039.51;1653193;86;21582;-85
2021/08/13 06:48:17;;;;;;;6.25;3.58;;;;;;;23.75;46.87;102038.55;1653554;85;21004;-81
2021/08/13 06:50:49;;;;;;;6.55;3.35;;;;;;;23.81;47.01;102037.09;1654087;86;21037;-85
2021/08/13 06:53:19;;;;;;;10.13;3.50;;;;;;;23.86;46.84;102038.31;1654176;85;21027;-87
2021/08/13 06:55:47;;;;;;;8.38;3.67;;;;;;;23.92;47.26;102043.48;1627993;86;21668;-79
2021/08/13 06:58:14;;;;;;;8.43;3.72;;;;;;;23.98;46.84;102038.40;1653641;86;21036;-80
2021/08/13 07:00:42;;;;;;;7.10;3.45;;;;;;;24.03;46.54;102043.22;1653613;86;21107;-85
2021/08/13 07:03:10;;;;;;;5.97;3.15;;;;;;;24.08;46.22;102048.91;1653861;86;39327;-86
2021/08/13 07:05:37;;;;;;;7.42;3.55;;;;;;;24.10;46.08;102046.44;1653854;85;20977;-73
2021/08/13 07:08:10;;;;;;;5.12;3.17;;;;;;;24.13;46.09;102051.45;1652270;86;21401;-77
2021/08/13 07:10:39;;;;;;;5.62;3.50;;;;;;;24.21;45.84;102046.71;1653492;85;20965;-84
2021/08/13 07:13:07;;;;;;;6.87;3.27;;;;;;;24.29;46.10;102043.25;1653986;86;21017;-80
2021/08/13 07:15:34;;;;;;;6.25;3.42;;;;;;;24.36;45.55;102051.77;1627354;86;21166;-77
2021/08/13 07:18:03;;;;;;;9.35;3.27;;;;;;;24.44;44.83;102049.67;1653831;85;21001;-80
2021/08/13 07:20:31;;;;;;;5.65;3.75;;;;;;;24.50;44.01;102043.73;1653999;86;20965;-76
2021/08/13 07:23:00;;;;;;;8.85;2.90;;;;;;;24.54;44.09;102040.58;1653863;86;21700;-85
2021/08/13 07:25:28;;;;;;;4.87;2.80;;;;;;;24.57;43.09;102044.24;1627316;86;21555;-77
2021/08/13 07:27:54;;;;;;;12.15;3.60;;;;;;;24.60;43.22;102037.28;1653237;86;21156;-83
2021/08/13 07:30:21;;;;;;;6.08;3.17;;;;;;;24.65;42.93;102050.93;1653428;86;20867;-74
2021/08/13 07:32:49;;;;;;;5.53;3.27;;;;;;;24.72;42.55;102041.34;1653656;86;20961;-82
2021/08/13 07:35:18;;;;;;;12.07;3.95;;;;;;;24.75;42.08;102036.20;1653626;86;21042;-79
2021/08/13 07:37:48;;;;;;;10.05;3.15;;;;;;;24.78;41.84;102042.52;1653159;85;20960;-80
2021/08/13 07:40:15;;;;;;;3.25;2.67;;;;;;;24.83;40.37;102043.37;1652852;85;21156;-81
2021/08/13 07:42:45;;;;;;;11.33;3.40;;;;;;;24.85;39.53;102048.89;1653549;85;21114;-81
2021/08/13 07:45:13;;;;;;;3.83;2.98;;;;;;;24.89;39.99;102047.55;1653581;85;20982;-78
2021/08/13 07:47:41;;;;;;;4.87;3.00;;;;;;;24.95;40.43;102050.92;1653335;85;21546;-80
2021/08/13 07:50:10;;;;;;;12.13;3.00;;;;;;;25.01;39.84;102053.42;1653241;85;21514;-80
2021/08/13 07:52:38;;;;;;;6.90;3.30;;;;;;;25.03;39.01;102047.44;1653437;85;21091;-75
2021/08/13 07:55:07;;;;;;;5.95;3.90;;;;;;;25.02;39.11;102043.95;1626962;86;21055;-80
2021/08/13 07:57:34;;;;;;;7.67;3.08;;;;;;;25.02;39.68;102043.95;1653529;86;20981;-79
2021/08/13 08:00:03;;;;;;;10.03;5.30;;;;;;;25.10;39.64;102046.64;1653530;85;20917;-78
2021/08/13 08:02:33;;;;;;;5.47;3.25;;;;;;;25.18;39.43;102047.98;1653489;86;20969;-77
2021/08/13 08:05:00;;;;;;;9.30;3.65;;;;;;;25.23;39.35;102042.19;1653478;86;21167;-73
2021/08/13 08:07:26;;;;;;;9.88;3.40;;;;;;;25.25;37.70;102045.01;1653667;86;21005;-79
2021/08/13 08:09:55;;;;;;;4.33;3.10;;;;;;;25.32;38.13;102040.37;1653639;86;20965;-76
2021/08/13 08:12:22;;;;;;;5.00;3.02;;;;;;;25.37;38.12;102035.41;1653615;86;21512;-79
2021/08/13 08:14:50;;;;;;;11.10;4.55;;;;;;;25.44;38.49;102032.41;1653399;86;21024;-80
2021/08/13 08:17:17;;;;;;;7.50;3.60;;;;;;;25.52;38.95;102029.80;1653787;85;21168;-79
2021/08/13 08:19:43;;;;;;;4.95;3.37;;;;;;;25.64;38.47;102035.95;1653729;86;20969;-85
2021/08/13 08:22:10;;;;;;;10.38;4.17;;;;;;;25.71;38.23;102025.48;1653695;86;21657;-78
2021/08/13 08:24:37;;;;;;;12.75;3.75;;;;;;;25.77;38.59;102034.95;1653675;85;20979;-81
2021/08/13 08:27:03;;;;;;;8.10;3.65;;;;;;;25.87;38.72;102033.95;1653605;86;21428;-88
2021/08/13 08:29:32;;;;;;;9.55;3.47;;;;;;;25.99;38.24;102048.55;1653481;85;21416;-79
2021/08/13 08:31:58;;;;;;;5.80;3.60;;;;;;;26.08;37.91;102038.23;1653234;85;21024;-78
2021/08/13 08:34:26;;;;;;;12.20;3.58;;;;;;;26.15;37.39;102040.06;1653554;86;21016;-85
2021/08/13 08:36:53;;;;;;;10.18;3.90;;;;;;;26.19;36.80;102041.42;1653584;86;21480;-87
2021/08/13 08:39:23;;;;;;;8.18;3.22;;;;;;;26.26;37.32;102045.56;1653494;86;21492;-76
2021/08/13 08:41:49;;;;;;;6.53;4.03;;;;;;;26.31;36.19;102033.90;1653606;86;21151;-81
2021/08/13 08:44:16;;;;;;;7.47;4.00;;;;;;;26.34;36.72;102038.88;1652971;86;21028;-76
2021/08/13 08:46:45;;;;;;;8.80;3.77;;;;;;;26.41;37.03;102034.54;1652970;85;21040;-82
2021/08/13 08:49:14;;;;;;;4.97;3.37;;;;;;;26.48;37.29;102038.19;1653405;86;21054;-84
2021/08/13 08:51:42;;;;;;;5.25;3.08;;;;;;;26.57;37.91;102034.98;1653477;85;21151;-83
2021/08/13 08:54:08;;;;;;;3.67;2.77;;;;;;;26.68;37.68;102038.58;1653323;86;21116;-77
2021/08/13 08:56:36;;;;;;;9.93;6.35;;;;;;;26.80;36.84;102030.56;1653278;86;20908;-79
2021/08/13 08:59:03;;;;;;;7.20;3.50;;;;;;;26.87;36.15;102030.20;1653418;86;20913;-73
2021/08/13 09:01:31;;;;;;;4.50;3.12;;;;;;;26.90;35.92;102029.84;1653363;86;20961;-75
2021/08/13 09:03:59;;;;;;;5.42;2.90;;;;;;;26.91;35.72;102032.84;1627039;86;21594;-79
2021/08/13 09:06:25;;;;;;;7.25;3.02;;;;;;;26.92;35.65;102024.36;1653410;86;21531;-80
2021/08/13 09:08:53;;;;;;;6.50;3.02;;;;;;;26.92;35.97;102023.03;1653323;86;20958;-78
2021/08/13 09:11:20;;;;;;;5.55;3.40;;;;;;;26.94;36.05;102020.51;1653215;86;20933;-81
2021/08/13 09:14:02;;;;;;;4.33;2.87;;;;;;;27.05;36.81;102026.78;1653234;86;21009;-86
2021/08/13 09:16:28;;;;;;;4.67;3.37;;;;;;;27.19;35.56;102022.02;1653223;85;21012;-81
2021/08/13 09:19:06;;;;;;;7.83;3.30;;;;;;;27.22;34.92;102014.16;1652443;86;21151;-78
2021/08/13 09:21:36;;;;;;;6.53;3.00;;;;;;;27.25;35.15;102009.31;1653225;86;20917;-80
2021/08/13 09:24:12;;;;;;;6.15;3.05;;;;;;;27.39;35.22;102002.88;1653377;86;21008;-79
2021/08/13 09:26:44;;;;;;;6.75;3.02;;;;;;;27.53;34.59;102004.81;1653262;86;20974;-80
2021/08/13 09:29:21;;;;;;;5.42;3.30;;;;;;;27.63;34.42;102005.40;1653320;86;21049;-78
2021/08/13 09:31:52;;;;;;;10.03;3.47;;;;;;;27.72;34.02;102011.81;1651672;86;21153;-86
2021/08/13 09:34:31;;;;;;;8.90;3.30;;;;;;;27.81;33.92;102012.06;1626070;85;20870;-80
2021/08/13 09:36:58;;;;;;;9.18;3.45;;;;;;;27.95;33.58;102014.44;1653259;86;21005;-79
2021/08/13 09:39:30;;;;;;;14.63;3.65;;;;;;;28.07;33.88;102011.67;1653615;86;20977;-79
2021/08/13 09:41:59;;;;;;;6.00;3.33;;;;;;;28.20;33.28;102017.20;1653139;85;21005;-78
2021/08/13 09:44:33;;;;;;;4.42;2.60;;;;;;;28.25;33.54;102008.12;1653348;86;21181;-78
2021/08/13 09:47:12;;;;;;;5.30;3.05;;;;;;;28.30;32.41;102011.59;1653167;86;20969;-75
2021/08/13 09:49:51;;;;;;;4.00;2.62;;;;;;;28.19;31.75;102013.37;1652627;86;21066;-80
2021/08/13 09:52:20;;;;;;;5.03;2.75;;;;;;;28.15;32.36;102014.23;1651983;85;21043;-77
2021/08/13 09:54:49;;;;;;;10.25;2.72;;;;;;;28.22;32.77;102026.34;1653345;86;21046;-83
2021/08/13 09:57:17;;;;;;;4.20;2.60;;;;;;;28.28;33.00;102022.44;1627394;86;21081;-79
2021/08/13 10:00:01;;;;;;;6.20;3.12;;;;;;;28.89;32.24;102016.36;1653462;86;21032;-81
2021/08/13 10:02:38;;;;;;;3.60;3.27;;;;;;;30.22;30.19;102018.69;1652114;85;20998;-79
2021/08/13 10:05:26;;;;;;;6.22;3.05;;;;;;;31.77;27.76;102008.35;1626440;86;20980;-79
2021/08/13 10:08:02;;;;;;;5.58;2.92;;;;;;;32.12;26.40;102011.11;1653301;86;21778;-82
2021/08/13 10:10:38;;;;;;;10.65;3.27;;;;;;;32.52;26.24;102012.34;1653395;86;21174;-80
2021/08/13 10:13:11;;;;;;;6.42;2.72;;;;;;;33.29;25.94;102015.66;1626731;88;21606;-85
2021/08/13 10:15:46;;;;;;;5.95;3.08;;;;;;;34.04;25.33;102020.00;1631704;86;21499;-83
2021/08/13 10:18:16;;;;;;;3.95;2.62;;;;;;;33.56;24.59;102014.11;1650555;84;21714;-81
2021/08/13 10:20:48;;;;;;;5.45;2.85;;;;;;;33.49;25.05;102010.13;1621954;88;21106;-76
2021/08/13 10:23:17;;;;;;;3.02;2.30;;;;;;;34.28;23.69;102009.39;1650274;87;21093;-78
2021/08/13 10:25:45;;;;;;;4.25;2.70;;;;;;;34.86;23.20;102005.14;1649559;85;20989;-84
2021/08/13 10:28:14;;;;;;;8.50;3.20;;;;;;;35.14;23.20;102009.94;1649336;87;21157;-82
2021/08/13 10:30:44;;;;;;;4.37;2.80;;;;;;;34.71;23.32;102002.56;1649129;87;20996;-81
2021/08/13 10:33:18;;;;;;;5.10;2.85;;;;;;;34.30;23.92;101998.70;1650522;87;21557;-74
2021/08/13 10:35:55;;;;;;;2.98;2.60;;;;;;;34.08;23.76;102001.49;1606475;87;21127;-75
2021/08/13 10:38:24;;;;;;;7.95;2.80;;;;;;;33.22;23.46;101996.59;1651091;87;20960;-81
2021/08/13 10:40:52;;;;;;;5.30;2.90;;;;;;;32.68;24.99;102000.59;1627709;87;20974;-83
2021/08/13 10:43:25;;;;;;;3.75;2.70;;;;;;;32.49;25.23;102002.30;1627575;87;20991;-81
2021/08/13 10:45:52;;;;;;;4.17;2.50;;;;;;;32.28;25.18;101999.91;1649398;87;21012;-78
2021/08/13 10:48:26;;;;;;;4.55;2.70;;;;;;;31.87;25.68;101996.67;1627442;87;21468;-84
2021/08/13 10:50:58;;;;;;;4.62;2.90;;;;;;;32.00;25.45;101990.73;1626739;87;21033;-77
2021/08/13 10:53:37;;;;;;;9.73;3.20;;;;;;;32.63;25.14;101997.73;1649421;87;20938;-80
2021/08/13 10:56:13;;;;;;;3.58;2.55;;;;;;;32.42;25.10;102003.38;1621415;87;20966;-77
2021/08/13 10:58:42;;;;;;;8.83;3.02;;;;;;;31.77;25.65;101993.58;1579504;88;21017;-77
2021/08/13 11:01:19;;;;;;;4.65;2.72;;;;;;;31.31;26.74;101994.89;1648907;85;21847;-85
2021/08/13 11:04:01;;;;;;;5.97;3.45;;;;;;;30.95;27.67;101990.70;1649283;87;20945;-81
2021/08/13 11:06:43;;;;;;;3.72;2.80;;;;;;;30.94;27.87;101988.22;1647960;87;21009;-81
2021/08/13 11:09:26;;;;;;;9.60;3.25;;;;;;;30.99;27.90;101985.77;1649604;87;21564;-80
2021/08/13 11:12:01;;;;;;;13.58;2.98;;;;;;;31.00;27.74;101985.27;1649609;87;21092;-78
2021/08/13 11:14:34;;;;;;;4.62;2.77;;;;;;;30.83;27.84;101985.60;1649310;87;21159;-78
2021/08/13 11:17:02;;;;;;;4.83;3.50;;;;;;;30.45;27.78;101996.49;1649651;84;21453;-81
2021/08/13 11:19:59;;;;;;;5.00;2.90;;;;;;;30.18;27.74;101993.34;1649391;87;21023;-78
2021/08/13 11:22:31;;;;;;;9.13;2.98;;;;;;;30.16;27.63;101988.17;1647391;87;21056;-79
2021/08/13 11:24:58;;;;;;;5.25;2.85;;;;;;;30.20;27.41;101990.78;1635208;87;21042;-86
2021/08/13 11:27:26;;;;;;;7.78;3.27;;;;;;;30.06;27.83;101984.22;1649171;86;21790;-83
2021/08/13 11:29:54;;;;;;;11.28;3.10;;;;;;;29.98;29.01;101981.69;1650038;87;20948;-80
2021/08/13 11:32:35;;;;;;;7.58;4.55;;;;;;;29.97;29.41;101982.70;1649017;87;21045;-85
2021/08/13 11:35:09;;;;;;;3.92;2.92;;;;;;;29.98;29.30;101977.67;1647766;87;20938;-76
2021/08/13 11:37:45;;;;;;;4.62;3.00;;;;;;;29.80;28.87;101969.59;1649617;86;20956;-73